sensor_id;sensor_type;location;lat;lon;timestamp;pressure;altitude;pressure_sealevel;temperature;humidity
9709;BME280;4893;42.024;23.098;2022-11-15T00:00:52;97470.06;;;4.24;100.00
9709;BME280;4893;42.024;23.098;2022-11-15T00:03:20;97464.47;;;4.19;100.00
9709;BME280;4893;42.024;23.098;2022-11-15T00:05:46;97456.28;;;4.25;100.00
9709;BME280;4893;42.024;23.098;2022-11-15T00:08:12;97457.91;;;4.26;100.00
9709;BME280;4893;42.024;23.098;2022-11-15T00:10:37;97463.97;;;4.25;100.00
9709;BME280;4893;42.024;23.098;2022-11-15T00:13:07;97451.38;;;4.22;100.00
9709;BME280;4893;42.024;23.098;2022-11-15T00:15:36;97446.25;;;4.22;100.00
9709;BME280;4893;42.024;23.098;2022-11-15T00:18:04;97460.84;;;4.21;100.00
9709;BME280;4893;42.024;23.098;2022-11-15T00:20:31;97460.28;;;4.18;100.00
9709;BME280;4893;42.024;23.098;2022-11-15T00:22:58;97461.47;;;4.14;100.00
9709;BME280;4893;42.024;23.098;2022-11-15T00:25:23;97460.50;;;4.15;100.00
9709;BME280;4893;42.024;23.098;2022-11-15T00:27:49;97463.13;;;4.04;100.00
9709;BME280;4893;42.024;23.098;2022-11-15T00:30:17;97459.38;;;4.08;100.00
9709;BME280;4893;42.024;23.098;2022-11-15T00:32:42;97465.09;;;4.11;100.00
9709;BME280;4893;42.024;23.098;2022-11-15T00:35:08;97457.72;;;4.07;100.00
9709;BME280;4893;42.024;23.098;2022-11-15T00:37:33;97439.13;;;3.83;100.00
9709;BME280;4893;42.024;23.098;2022-11-15T00:39:58;97458.72;;;3.95;100.00
9709;BME280;4893;42.024;23.098;2022-11-15T00:42:24;97459.53;;;3.95;100.00
9709;BME280;4893;42.024;23.098;2022-11-15T00:44:49;97459.97;;;4.00;100.00
9709;BME280;4893;42.024;23.098;2022-11-15T00:47:19;97455.41;;;4.04;100.00
9709;BME280;4893;42.024;23.098;2022-11-15T00:49:44;97464.31;;;4.00;100.00
9709;BME280;4893;42.024;23.098;2022-11-15T00:52:09;97465.03;;;4.02;100.00
9709;BME280;4893;42.024;23.098;2022-11-15T00:54:40;97452.16;;;4.02;100.00
9709;BME280;4893;42.024;23.098;2022-11-15T00:57:05;97449.03;;;3.98;100.00
9709;BME280;4893;42.024;23.098;2022-11-15T00:59:31;97458.69;;;4.06;100.00
9709;BME280;4893;42.024;23.098;2022-11-15T01:01:59;97457.19;;;4.03;100.00
9709;BME280;4893;42.024;23.098;2022-11-15T01:04:24;97458.59;;;3.96;100.00
9709;BME280;4893;42.024;23.098;2022-11-15T01:06:50;97462.22;;;3.94;100.00
9709;BME280;4893;42.024;23.098;2022-11-15T01:09:15;97463.84;;;3.95;100.00
9709;BME280;4893;42.024;23.098;2022-11-15T01:11:41;97455.94;;;3.87;100.00
9709;BME280;4893;42.024;23.098;2022-11-15T01:14:06;97467.38;;;3.83;100.00
9709;BME280;4893;42.024;23.098;2022-11-15T01:16:32;97452.34;;;3.67;100.00
9709;BME280;4893;42.024;23.098;2022-11-15T01:18:58;97460.19;;;3.66;100.00
9709;BME280;4893;42.024;23.098;2022-11-15T01:21:24;97466.91;;;3.78;100.00
9709;BME280;4893;42.024;23.098;2022-11-15T01:23:53;97458.53;;;3.76;100.00
9709;BME280;4893;42.024;23.098;2022-11-15T01:26:19;97460.28;;;3.75;100.00
9709;BME280;4893;42.024;23.098;2022-11-15T01:28:45;97437.78;;;3.57;100.00
9709;BME280;4893;42.024;23.098;2022-11-15T01:31:16;97462.63;;;3.67;100.00
9709;BME280;4893;42.024;23.098;2022-11-15T01:33:42;97463.78;;;3.63;100.00
9709;BME280;4893;42.024;23.098;2022-11-15T01:36:11;97469.50;;;3.67;100.00
9709;BME280;4893;42.024;23.098;2022-11-15T01:38:37;97474.63;;;3.67;100.00
9709;BME280;4893;42.024;23.098;2022-11-15T01:41:03;97472.81;;;3.58;100.00
9709;BME280;4893;42.024;23.098;2022-11-15T01:43:35;97471.50;;;3.52;100.00
9709;BME280;4893;42.024;23.098;2022-11-15T01:48:42;97464.28;;;3.35;100.00
9709;BME280;4893;42.024;23.098;2022-11-15T01:51:10;97470.09;;;3.37;100.00
9709;BME280;4893;42.024;23.098;2022-11-15T01:53:38;97455.31;;;3.30;100.00
9709;BME280;4893;42.024;23.098;2022-11-15T01:56:08;97469.44;;;3.35;100.00
9709;BME280;4893;42.024;23.098;2022-11-15T01:58:35;97469.66;;;3.32;100.00
9709;BME280;4893;42.024;23.098;2022-11-15T02:01:01;97462.06;;;3.31;100.00
9709;BME280;4893;42.024;23.098;2022-11-15T02:03:44;97470.59;;;3.31;100.00
9709;BME280;4893;42.024;23.098;2022-11-15T02:06:13;97445.53;;;3.13;100.00
9709;BME280;4893;42.024;23.098;2022-11-15T02:08:39;97464.97;;;3.26;100.00
9709;BME280;4893;42.024;23.098;2022-11-15T02:11:08;97459.03;;;3.15;100.00
9709;BME280;4893;42.024;23.098;2022-11-15T02:13:34;97449.94;;;3.00;100.00
9709;BME280;4893;42.024;23.098;2022-11-15T02:22:14;97452.75;;;3.08;100.00
9709;BME280;4893;42.024;23.098;2022-11-15T02:25:03;97455.31;;;3.08;100.00
9709;BME280;4893;42.024;23.098;2022-11-15T02:36:19;97451.31;;;3.04;100.00
9709;BME280;4893;42.024;23.098;2022-11-15T02:39:13;97454.72;;;3.04;100.00
9709;BME280;4893;42.024;23.098;2022-11-15T02:44:27;97435.34;;;2.78;100.00
9709;BME280;4893;42.024;23.098;2022-11-15T02:47:03;97449.47;;;2.95;100.00
9709;BME280;4893;42.024;23.098;2022-11-15T02:49:48;97457.63;;;3.00;100.00
9709;BME280;4893;42.024;23.098;2022-11-15T02:52:15;97451.91;;;2.96;100.00
9709;BME280;4893;42.024;23.098;2022-11-15T02:54:58;97438.84;;;2.88;100.00
9709;BME280;4893;42.024;23.098;2022-11-15T03:00:07;97459.03;;;3.04;100.00
9709;BME280;4893;42.024;23.098;2022-11-15T03:02:43;97452.94;;;2.94;100.00
9709;BME280;4893;42.024;23.098;2022-11-15T03:11:13;97432.53;;;2.81;100.00
9709;BME280;4893;42.024;23.098;2022-11-15T03:16:26;97458.19;;;2.92;100.00
9709;BME280;4893;42.024;23.098;2022-11-15T03:19:07;97458.31;;;2.91;100.00
9709;BME280;4893;42.024;23.098;2022-11-15T03:21:34;97459.84;;;2.93;100.00
9709;BME280;4893;42.024;23.098;2022-11-15T03:24:03;97455.84;;;2.89;100.00
9709;BME280;4893;42.024;23.098;2022-11-15T03:26:32;97452.22;;;2.80;100.00
9709;BME280;4893;42.024;23.098;2022-11-15T03:29:18;97462.16;;;2.85;100.00
9709;BME280;4893;42.024;23.098;2022-11-15T03:31:48;97458.06;;;2.82;100.00
9709;BME280;4893;42.024;23.098;2022-11-15T03:34:23;97439.97;;;2.73;100.00
9709;BME280;4893;42.024;23.098;2022-11-15T03:36:51;97449.41;;;2.72;100.00
9709;BME280;4893;42.024;23.098;2022-11-15T03:39:18;97427.38;;;2.59;100.00
9709;BME280;4893;42.024;23.098;2022-11-15T03:44:40;97433.59;;;2.78;100.00
9709;BME280;4893;42.024;23.098;2022-11-15T03:47:11;97429.97;;;2.81;100.00
9709;BME280;4893;42.024;23.098;2022-11-15T03:49:42;97428.59;;;2.88;100.00
9709;BME280;4893;42.024;23.098;2022-11-15T03:52:30;97428.94;;;2.95;100.00
9709;BME280;4893;42.024;23.098;2022-11-15T03:54:56;97427.66;;;3.00;100.00
9709;BME280;4893;42.024;23.098;2022-11-15T03:57:22;97423.34;;;3.01;100.00
9709;BME280;4893;42.024;23.098;2022-11-15T03:59:48;97414.63;;;3.03;100.00
9709;BME280;4893;42.024;23.098;2022-11-15T04:02:13;97398.88;;;3.08;100.00
9709;BME280;4893;42.024;23.098;2022-11-15T04:04:39;97406.44;;;3.20;100.00
9709;BME280;4893;42.024;23.098;2022-11-15T04:07:05;97407.94;;;3.01;100.00
9709;BME280;4893;42.024;23.098;2022-11-15T04:09:30;97390.47;;;2.95;100.00
9709;BME280;4893;42.024;23.098;2022-11-15T04:11:55;97410.06;;;3.18;100.00
9709;BME280;4893;42.024;23.098;2022-11-15T04:14:24;97411.31;;;3.23;100.00
9709;BME280;4893;42.024;23.098;2022-11-15T04:16:49;97410.16;;;3.16;100.00
9709;BME280;4893;42.024;23.098;2022-11-15T04:19:15;97408.75;;;3.23;100.00
9709;BME280;4893;42.024;23.098;2022-11-15T04:21:59;97401.72;;;3.47;100.00
9709;BME280;4893;42.024;23.098;2022-11-15T04:24:43;97398.78;;;3.52;100.00
9709;BME280;4893;42.024;23.098;2022-11-15T04:27:08;97395.78;;;3.58;100.00
9709;BME280;4893;42.024;23.098;2022-11-15T04:29:33;97402.25;;;3.84;100.00
9709;BME280;4893;42.024;23.098;2022-11-15T04:32:04;97394.78;;;3.81;100.00
9709;BME280;4893;42.024;23.098;2022-11-15T04:34:30;97399.31;;;3.88;100.00
9709;BME280;4893;42.024;23.098;2022-11-15T04:36:56;97380.25;;;3.91;100.00
9709;BME280;4893;42.024;23.098;2022-11-15T04:39:42;97395.84;;;4.10;100.00
9709;BME280;4893;42.024;23.098;2022-11-15T04:42:08;97398.47;;;4.19;100.00
9709;BME280;4893;42.024;23.098;2022-11-15T04:44:33;97392.13;;;4.03;100.00
9709;BME280;4893;42.024;23.098;2022-11-15T04:46:59;97394.63;;;4.14;100.00
9709;BME280;4893;42.024;23.098;2022-11-15T04:49:26;97369.25;;;4.00;100.00
9709;BME280;4893;42.024;23.098;2022-11-15T04:51:52;97389.19;;;4.28;100.00
9709;BME280;4893;42.024;23.098;2022-11-15T04:54:17;97387.44;;;4.08;100.00
9709;BME280;4893;42.024;23.098;2022-11-15T04:56:43;97379.66;;;4.19;100.00
9709;BME280;4893;42.024;23.098;2022-11-15T04:59:08;97386.19;;;4.23;100.00
9709;BME280;4893;42.024;23.098;2022-11-15T05:01:34;97384.31;;;4.25;100.00
9709;BME280;4893;42.024;23.098;2022-11-15T05:03:59;97358.78;;;4.33;100.00
9709;BME280;4893;42.024;23.098;2022-11-15T05:06:43;97381.31;;;4.41;100.00
9709;BME280;4893;42.024;23.098;2022-11-15T05:09:10;97378.75;;;4.41;100.00
9709;BME280;4893;42.024;23.098;2022-11-15T05:11:38;97380.69;;;4.48;100.00
9709;BME280;4893;42.024;23.098;2022-11-15T05:14:03;97381.25;;;4.52;100.00
9709;BME280;4893;42.024;23.098;2022-11-15T05:16:29;97386.97;;;4.55;100.00
9709;BME280;4893;42.024;23.098;2022-11-15T05:18:54;97399.38;;;4.50;100.00
9709;BME280;4893;42.024;23.098;2022-11-15T05:21:27;97402.63;;;4.52;100.00
9709;BME280;4893;42.024;23.098;2022-11-15T05:23:52;97400.19;;;4.51;100.00
9709;BME280;4893;42.024;23.098;2022-11-15T05:26:21;97389.06;;;4.09;100.00
9709;BME280;4893;42.024;23.098;2022-11-15T05:28:55;97404.66;;;3.96;100.00
9709;BME280;4893;42.024;23.098;2022-11-15T05:31:21;97398.94;;;3.93;100.00
9709;BME280;4893;42.024;23.098;2022-11-15T05:33:49;97405.59;;;3.95;100.00
9709;BME280;4893;42.024;23.098;2022-11-15T05:38:53;97392.69;;;3.75;100.00
9709;BME280;4893;42.024;23.098;2022-11-15T05:41:20;97405.94;;;3.91;100.00
9709;BME280;4893;42.024;23.098;2022-11-15T05:43:48;97400.81;;;4.22;100.00
9709;BME280;4893;42.024;23.098;2022-11-15T05:46:15;97405.19;;;4.32;100.00
9709;BME280;4893;42.024;23.098;2022-11-15T05:48:43;97409.03;;;4.37;100.00
9709;BME280;4893;42.024;23.098;2022-11-15T05:51:12;97407.59;;;4.44;100.00
9709;BME280;4893;42.024;23.098;2022-11-15T05:53:39;97405.69;;;4.46;100.00
9709;BME280;4893;42.024;23.098;2022-11-15T05:56:05;97416.06;;;4.03;100.00
9709;BME280;4893;42.024;23.098;2022-11-15T05:58:35;97374.00;;;3.84;100.00
9709;BME280;4893;42.024;23.098;2022-11-15T06:01:02;97392.41;;;3.89;100.00
9709;BME280;4893;42.024;23.098;2022-11-15T06:03:27;97405.69;;;3.94;100.00
9709;BME280;4893;42.024;23.098;2022-11-15T06:05:53;97393.00;;;3.81;100.00
9709;BME280;4893;42.024;23.098;2022-11-15T06:08:18;97395.66;;;3.91;100.00
9709;BME280;4893;42.024;23.098;2022-11-15T06:10:43;97418.13;;;3.78;100.00
9709;BME280;4893;42.024;23.098;2022-11-15T06:13:09;97410.56;;;3.65;100.00
9709;BME280;4893;42.024;23.098;2022-11-15T06:15:35;97411.34;;;3.77;100.00
9709;BME280;4893;42.024;23.098;2022-11-15T06:18:00;97415.41;;;3.90;100.00
9709;BME280;4893;42.024;23.098;2022-11-15T06:20:27;97404.84;;;3.62;100.00
9709;BME280;4893;42.024;23.098;2022-11-15T06:23:00;97413.97;;;3.97;100.00
9709;BME280;4893;42.024;23.098;2022-11-15T06:25:27;97399.47;;;3.76;100.00
9709;BME280;4893;42.024;23.098;2022-11-15T06:27:56;97401.78;;;3.79;100.00
9709;BME280;4893;42.024;23.098;2022-11-15T06:30:24;97424.53;;;4.15;100.00
9709;BME280;4893;42.024;23.098;2022-11-15T06:32:50;97422.41;;;4.20;100.00
9709;BME280;4893;42.024;23.098;2022-11-15T06:35:15;97358.59;;;3.73;100.00
9709;BME280;4893;42.024;23.098;2022-11-15T06:37:41;97428.78;;;4.05;100.00
9709;BME280;4893;42.024;23.098;2022-11-15T06:40:09;97399.06;;;4.12;100.00
9709;BME280;4893;42.024;23.098;2022-11-15T06:42:35;97433.53;;;4.41;100.00
9709;BME280;4893;42.024;23.098;2022-11-15T06:45:00;97435.44;;;4.60;100.00
9709;BME280;4893;42.024;23.098;2022-11-15T06:47:26;97432.03;;;4.59;100.00
9709;BME280;4893;42.024;23.098;2022-11-15T06:49:51;97442.16;;;4.72;100.00
9709;BME280;4893;42.024;23.098;2022-11-15T06:52:17;97441.78;;;4.76;100.00
9709;BME280;4893;42.024;23.098;2022-11-15T06:54:46;97430.84;;;4.84;100.00
9709;BME280;4893;42.024;23.098;2022-11-15T06:57:12;97399.66;;;4.77;100.00
9709;BME280;4893;42.024;23.098;2022-11-15T06:59:38;97433.72;;;4.90;100.00
9709;BME280;4893;42.024;23.098;2022-11-15T07:02:03;97421.63;;;5.11;100.00
9709;BME280;4893;42.024;23.098;2022-11-15T07:04:29;97428.38;;;5.33;100.00
9709;BME280;4893;42.024;23.098;2022-11-15T07:06:54;97434.53;;;5.51;100.00
9709;BME280;4893;42.024;23.098;2022-11-15T07:09:20;97415.28;;;5.55;100.00
9709;BME280;4893;42.024;23.098;2022-11-15T07:11:45;97423.09;;;5.84;100.00
9709;BME280;4893;42.024;23.098;2022-11-15T07:14:11;97411.03;;;5.84;100.00
9709;BME280;4893;42.024;23.098;2022-11-15T07:16:37;97430.00;;;5.74;100.00
9709;BME280;4893;42.024;23.098;2022-11-15T07:19:03;97425.03;;;5.51;100.00
9709;BME280;4893;42.024;23.098;2022-11-15T07:21:28;97427.88;;;5.48;100.00
9709;BME280;4893;42.024;23.098;2022-11-15T07:23:54;97418.16;;;5.71;100.00
9709;BME280;4893;42.024;23.098;2022-11-15T07:26:19;97417.41;;;5.40;100.00
9709;BME280;4893;42.024;23.098;2022-11-15T07:28:45;97417.44;;;5.50;100.00
9709;BME280;4893;42.024;23.098;2022-11-15T07:31:10;97423.09;;;5.84;100.00
9709;BME280;4893;42.024;23.098;2022-11-15T07:33:36;97428.44;;;6.11;100.00
9709;BME280;4893;42.024;23.098;2022-11-15T07:36:06;97422.19;;;6.23;100.00
9709;BME280;4893;42.024;23.098;2022-11-15T07:38:32;97424.50;;;6.26;100.00
9709;BME280;4893;42.024;23.098;2022-11-15T07:41:02;97421.94;;;6.45;100.00
9709;BME280;4893;42.024;23.098;2022-11-15T07:43:28;97429.94;;;6.51;100.00
9709;BME280;4893;42.024;23.098;2022-11-15T07:45:54;97411.88;;;6.04;100.00
9709;BME280;4893;42.024;23.098;2022-11-15T07:48:20;97414.88;;;6.28;100.00
9709;BME280;4893;42.024;23.098;2022-11-15T07:50:45;97412.13;;;6.67;100.00
9709;BME280;4893;42.024;23.098;2022-11-15T07:53:11;97412.41;;;6.55;100.00
9709;BME280;4893;42.024;23.098;2022-11-15T07:55:38;97404.81;;;6.44;100.00
9709;BME280;4893;42.024;23.098;2022-11-15T07:58:07;97405.66;;;6.25;100.00
9709;BME280;4893;42.024;23.098;2022-11-15T08:00:34;97412.84;;;6.12;100.00
9709;BME280;4893;42.024;23.098;2022-11-15T08:03:20;97398.44;;;5.91;100.00
9709;BME280;4893;42.024;23.098;2022-11-15T08:05:50;97420.94;;;5.89;100.00
9709;BME280;4893;42.024;23.098;2022-11-15T08:08:16;97412.56;;;6.15;100.00
9709;BME280;4893;42.024;23.098;2022-11-15T08:10:41;97403.47;;;6.40;100.00
9709;BME280;4893;42.024;23.098;2022-11-15T08:13:09;97412.00;;;6.40;100.00
9709;BME280;4893;42.024;23.098;2022-11-15T08:15:35;97412.66;;;6.52;100.00
9709;BME280;4893;42.024;23.098;2022-11-15T08:18:04;97397.56;;;6.66;100.00
9709;BME280;4893;42.024;23.098;2022-11-15T08:20:32;97401.69;;;7.05;100.00
9709;BME280;4893;42.024;23.098;2022-11-15T08:22:59;97407.13;;;7.39;100.00
9709;BME280;4893;42.024;23.098;2022-11-15T08:25:25;97410.47;;;7.22;100.00
9709;BME280;4893;42.024;23.098;2022-11-15T08:27:57;97404.13;;;7.07;100.00
9709;BME280;4893;42.024;23.098;2022-11-15T08:30:23;97405.59;;;7.19;100.00
9709;BME280;4893;42.024;23.098;2022-11-15T08:32:50;97401.53;;;7.71;100.00
9709;BME280;4893;42.024;23.098;2022-11-15T08:35:16;97389.41;;;7.44;100.00
9709;BME280;4893;42.024;23.098;2022-11-15T08:37:42;97403.88;;;7.64;100.00
9709;BME280;4893;42.024;23.098;2022-11-15T08:40:08;97394.31;;;7.47;100.00
9709;BME280;4893;42.024;23.098;2022-11-15T08:42:34;97391.63;;;7.66;100.00
9709;BME280;4893;42.024;23.098;2022-11-15T08:45:00;97364.19;;;7.56;100.00
9709;BME280;4893;42.024;23.098;2022-11-15T08:47:25;97394.53;;;8.16;100.00
9709;BME280;4893;42.024;23.098;2022-11-15T08:49:51;97382.56;;;8.15;100.00
9709;BME280;4893;42.024;23.098;2022-11-15T08:52:17;97398.47;;;8.37;100.00
9709;BME280;4893;42.024;23.098;2022-11-15T08:54:42;97392.69;;;8.08;100.00
9709;BME280;4893;42.024;23.098;2022-11-15T08:57:08;97387.13;;;8.21;100.00
9709;BME280;4893;42.024;23.098;2022-11-15T08:59:35;97387.44;;;8.79;100.00
9709;BME280;4893;42.024;23.098;2022-11-15T09:02:02;97381.81;;;9.09;100.00
9709;BME280;4893;42.024;23.098;2022-11-15T09:04:28;97387.03;;;9.58;100.00
9709;BME280;4893;42.024;23.098;2022-11-15T09:06:53;97382.06;;;9.81;100.00
9709;BME280;4893;42.024;23.098;2022-11-15T09:09:19;97381.28;;;11.09;100.00
9709;BME280;4893;42.024;23.098;2022-11-15T09:11:44;97373.13;;;12.20;100.00
9709;BME280;4893;42.024;23.098;2022-11-15T09:14:11;97367.97;;;11.89;100.00
9709;BME280;4893;42.024;23.098;2022-11-15T09:16:37;97363.47;;;11.75;100.00
9709;BME280;4893;42.024;23.098;2022-11-15T09:19:03;97348.25;;;13.50;100.00
9709;BME280;4893;42.024;23.098;2022-11-15T09:21:29;97344.38;;;14.38;100.00
9709;BME280;4893;42.024;23.098;2022-11-15T09:23:54;97344.25;;;14.74;98.09
9709;BME280;4893;42.024;23.098;2022-11-15T09:26:20;97331.78;;;15.38;85.45
9709;BME280;4893;42.024;23.098;2022-11-15T09:28:45;97260.66;;;14.87;79.87
9709;BME280;4893;42.024;23.098;2022-11-15T09:31:11;97317.56;;;14.51;86.20
9709;BME280;4893;42.024;23.098;2022-11-15T09:33:37;97331.84;;;14.82;82.99
9709;BME280;4893;42.024;23.098;2022-11-15T09:36:05;97313.78;;;14.60;82.88
9709;BME280;4893;42.024;23.098;2022-11-15T09:38:31;97304.72;;;14.14;86.15
9709;BME280;4893;42.024;23.098;2022-11-15T09:41:42;97299.94;;;13.39;95.42
9709;BME280;4893;42.024;23.098;2022-11-15T09:49:34;97284.47;;;11.07;100.00
9709;BME280;4893;42.024;23.098;2022-11-15T09:52:00;97275.75;;;11.31;100.00
9709;BME280;4893;42.024;23.098;2022-11-15T09:54:35;97272.41;;;11.14;100.00
9709;BME280;4893;42.024;23.098;2022-11-15T09:57:16;97271.84;;;11.35;100.00
9709;BME280;4893;42.024;23.098;2022-11-15T10:05:04;97249.88;;;11.60;100.00
9709;BME280;4893;42.024;23.098;2022-11-15T10:07:50;97249.25;;;11.58;100.00
9709;BME280;4893;42.024;23.098;2022-11-15T10:10:30;97239.28;;;11.69;100.00
9709;BME280;4893;42.024;23.098;2022-11-15T10:12:57;97236.66;;;11.92;100.00
9709;BME280;4893;42.024;23.098;2022-11-15T10:15:23;97226.66;;;11.81;100.00
9709;BME280;4893;42.024;23.098;2022-11-15T10:18:06;97229.41;;;12.02;100.00
9709;BME280;4893;42.024;23.098;2022-11-15T10:20:46;97215.22;;;11.90;100.00
9709;BME280;4893;42.024;23.098;2022-11-15T10:23:14;97207.44;;;11.37;100.00
9709;BME280;4893;42.024;23.098;2022-11-15T10:25:40;97197.72;;;11.08;100.00
9709;BME280;4893;42.024;23.098;2022-11-15T10:28:16;97197.19;;;10.82;100.00
9709;BME280;4893;42.024;23.098;2022-11-15T10:30:48;97179.06;;;10.74;100.00
9709;BME280;4893;42.024;23.098;2022-11-15T10:35:47;97162.16;;;11.08;100.00
9709;BME280;4893;42.024;23.098;2022-11-15T10:38:13;97168.53;;;10.98;100.00
9709;BME280;4893;42.024;23.098;2022-11-15T10:40:40;97161.38;;;11.00;100.00
9709;BME280;4893;42.024;23.098;2022-11-15T10:45:34;97136.16;;;11.08;100.00
9709;BME280;4893;42.024;23.098;2022-11-15T10:48:26;97139.84;;;11.14;100.00
9709;BME280;4893;42.024;23.098;2022-11-15T10:50:53;97126.31;;;11.18;100.00
9709;BME280;4893;42.024;23.098;2022-11-15T10:53:38;97129.91;;;11.17;100.00
9709;BME280;4893;42.024;23.098;2022-11-15T10:56:08;97121.03;;;11.35;100.00
9709;BME280;4893;42.024;23.098;2022-11-15T10:58:42;97117.28;;;11.52;100.00
9709;BME280;4893;42.024;23.098;2022-11-15T11:03:39;97101.91;;;11.65;100.00
9709;BME280;4893;42.024;23.098;2022-11-15T11:06:12;97106.53;;;11.92;100.00
9709;BME280;4893;42.024;23.098;2022-11-15T11:08:38;97099.25;;;12.02;100.00
9709;BME280;4893;42.024;23.098;2022-11-15T11:11:05;97077.97;;;11.98;100.00
9709;BME280;4893;42.024;23.098;2022-11-15T11:13:38;97091.28;;;12.03;100.00
9709;BME280;4893;42.024;23.098;2022-11-15T11:19:20;97075.19;;;12.00;100.00
9709;BME280;4893;42.024;23.098;2022-11-15T11:24:37;97040.50;;;11.93;100.00
9709;BME280;4893;42.024;23.098;2022-11-15T11:30:24;97060.75;;;12.26;100.00
9709;BME280;4893;42.024;23.098;2022-11-15T11:33:16;97056.31;;;12.41;100.00
9709;BME280;4893;42.024;23.098;2022-11-15T11:36:05;97047.25;;;12.37;100.00
9709;BME280;4893;42.024;23.098;2022-11-15T11:44:49;97030.50;;;12.61;100.00
9709;BME280;4893;42.024;23.098;2022-11-15T11:47:35;97036.25;;;12.78;100.00
9709;BME280;4893;42.024;23.098;2022-11-15T11:50:22;97039.25;;;12.75;100.00
9709;BME280;4893;42.024;23.098;2022-11-15T11:52:55;97039.69;;;12.78;100.00
9709;BME280;4893;42.024;23.098;2022-11-15T11:55:34;97040.19;;;12.88;100.00
9709;BME280;4893;42.024;23.098;2022-11-15T11:58:14;97033.84;;;12.97;100.00
9709;BME280;4893;42.024;23.098;2022-11-15T12:00:55;97023.41;;;12.97;100.00
9709;BME280;4893;42.024;23.098;2022-11-15T12:08:55;96981.69;;;12.97;100.00
9709;BME280;4893;42.024;23.098;2022-11-15T12:11:55;96988.13;;;13.16;100.00
9709;BME280;4893;42.024;23.098;2022-11-15T12:16:58;96980.06;;;13.38;100.00
9709;BME280;4893;42.024;23.098;2022-11-15T12:19:24;96959.56;;;13.35;100.00
9709;BME280;4893;42.024;23.098;2022-11-15T12:22:12;96971.16;;;13.60;100.00
9709;BME280;4893;42.024;23.098;2022-11-15T12:24:40;96960.56;;;13.75;100.00
9709;BME280;4893;42.024;23.098;2022-11-15T12:30:14;96950.97;;;13.75;100.00
9709;BME280;4893;42.024;23.098;2022-11-15T12:32:51;96935.69;;;13.72;100.00
9709;BME280;4893;42.024;23.098;2022-11-15T12:35:39;96945.75;;;13.82;100.00
9709;BME280;4893;42.024;23.098;2022-11-15T12:38:10;96937.53;;;13.85;100.00
9709;BME280;4893;42.024;23.098;2022-11-15T12:40:38;96937.81;;;14.03;100.00
9709;BME280;4893;42.024;23.098;2022-11-15T12:43:40;96942.09;;;14.24;100.00
9709;BME280;4893;42.024;23.098;2022-11-15T12:49:07;96935.16;;;14.57;100.00
9709;BME280;4893;42.024;23.098;2022-11-15T13:02:41;96925.13;;;14.80;100.00
9709;BME280;4893;42.024;23.098;2022-11-15T13:17:49;96908.22;;;14.63;100.00
9709;BME280;4893;42.024;23.098;2022-11-15T13:22:50;96904.22;;;14.60;100.00
9709;BME280;4893;42.024;23.098;2022-11-15T13:25:27;96902.78;;;14.71;100.00
9709;BME280;4893;42.024;23.098;2022-11-15T13:28:00;96884.69;;;14.63;100.00
9709;BME280;4893;42.024;23.098;2022-11-15T13:30:27;96900.38;;;14.69;100.00
9709;BME280;4893;42.024;23.098;2022-11-15T13:32:54;96888.31;;;14.62;100.00
9709;BME280;4893;42.024;23.098;2022-11-15T13:35:25;96891.91;;;14.48;100.00
9709;BME280;4893;42.024;23.098;2022-11-15T13:37:53;96872.84;;;14.41;100.00
9709;BME280;4893;42.024;23.098;2022-11-15T13:40:34;96892.94;;;14.47;100.00
9709;BME280;4893;42.024;23.098;2022-11-15T13:43:17;96888.91;;;14.44;100.00
9709;BME280;4893;42.024;23.098;2022-11-15T13:46:19;96891.09;;;14.28;100.00
9709;BME280;4893;42.024;23.098;2022-11-15T13:48:47;96888.03;;;14.24;100.00
9709;BME280;4893;42.024;23.098;2022-11-15T13:53:56;96867.09;;;14.05;100.00
9709;BME280;4893;42.024;23.098;2022-11-15T13:56:23;96884.88;;;14.29;100.00
9709;BME280;4893;42.024;23.098;2022-11-15T13:58:51;96886.63;;;14.22;100.00
9709;BME280;4893;42.024;23.098;2022-11-15T14:01:19;96889.22;;;14.22;100.00
9709;BME280;4893;42.024;23.098;2022-11-15T14:03:55;96879.59;;;14.22;100.00
9709;BME280;4893;42.024;23.098;2022-11-15T14:06:24;96882.41;;;14.21;100.00
9709;BME280;4893;42.024;23.098;2022-11-15T14:11:34;96882.59;;;14.13;100.00
9709;BME280;4893;42.024;23.098;2022-11-15T14:16:42;96874.94;;;13.98;100.00
9709;BME280;4893;42.024;23.098;2022-11-15T14:22:17;96875.44;;;13.74;100.00
9709;BME280;4893;42.024;23.098;2022-11-15T14:24:50;96879.84;;;13.73;100.00
9709;BME280;4893;42.024;23.098;2022-11-15T14:27:54;96889.53;;;13.73;100.00
9709;BME280;4893;42.024;23.098;2022-11-15T14:30:29;96880.88;;;13.72;100.00
9709;BME280;4893;42.024;23.098;2022-11-15T14:32:55;96885.47;;;13.70;100.00
9709;BME280;4893;42.024;23.098;2022-11-15T14:35:26;96877.56;;;13.51;100.00
9709;BME280;4893;42.024;23.098;2022-11-15T14:37:51;96889.56;;;13.39;100.00
9709;BME280;4893;42.024;23.098;2022-11-15T14:40:20;96846.50;;;13.22;100.00
9709;BME280;4893;42.024;23.098;2022-11-15T14:42:47;96870.03;;;13.28;100.00
9709;BME280;4893;42.024;23.098;2022-11-15T14:45:18;96880.84;;;13.25;100.00
9709;BME280;4893;42.024;23.098;2022-11-15T14:47:44;96880.19;;;13.17;100.00
9709;BME280;4893;42.024;23.098;2022-11-15T14:50:14;96888.13;;;13.02;100.00
9709;BME280;4893;42.024;23.098;2022-11-15T14:52:42;96890.59;;;12.89;100.00
9709;BME280;4893;42.024;23.098;2022-11-15T14:55:25;96885.28;;;12.76;100.00
9709;BME280;4893;42.024;23.098;2022-11-15T14:57:51;96876.41;;;12.64;100.00
9709;BME280;4893;42.024;23.098;2022-11-15T15:00:20;96875.38;;;12.65;100.00
9709;BME280;4893;42.024;23.098;2022-11-15T15:02:47;96863.50;;;12.56;100.00
9709;BME280;4893;42.024;23.098;2022-11-15T15:05:18;96875.78;;;12.62;100.00
9709;BME280;4893;42.024;23.098;2022-11-15T15:08:03;96891.16;;;12.57;100.00
9709;BME280;4893;42.024;23.098;2022-11-15T15:10:37;96882.84;;;12.47;100.00
9709;BME280;4893;42.024;23.098;2022-11-15T15:13:05;96881.38;;;12.38;100.00
9709;BME280;4893;42.024;23.098;2022-11-15T15:15:35;96864.94;;;12.16;100.00
9709;BME280;4893;42.024;23.098;2022-11-15T15:18:03;96879.16;;;12.14;100.00
9709;BME280;4893;42.024;23.098;2022-11-15T15:20:29;96856.19;;;12.03;100.00
9709;BME280;4893;42.024;23.098;2022-11-15T15:22:55;96867.97;;;11.99;100.00